createdAt,value
2019-02-25T00:00:26.176Z,-0.52
2019-02-25T00:02:56.742Z,-0.50
2019-02-25T00:05:28.360Z,-0.53
2019-02-25T00:07:58.785Z,-0.49
2019-02-25T00:10:29.924Z,-0.46
2019-02-25T00:13:01.478Z,-0.50
2019-02-25T00:15:32.514Z,-0.51
2019-02-25T00:18:03.762Z,-0.57
2019-02-25T00:20:35.523Z,-0.59
2019-02-25T00:23:06.492Z,-0.54
2019-02-25T00:25:38.838Z,-0.56
2019-02-25T00:28:10.274Z,-0.60
2019-02-25T00:30:41.007Z,-0.60
2019-02-25T00:33:16.039Z,-0.56
2019-02-25T00:35:48.612Z,-0.56
2019-02-25T00:38:20.169Z,-0.54
2019-02-25T00:40:51.003Z,-0.53
2019-02-25T00:43:21.834Z,-0.54
2019-02-25T00:45:53.586Z,-0.48
2019-02-25T00:48:24.120Z,-0.50
2019-02-25T00:50:55.467Z,-0.45
2019-02-25T00:53:26.120Z,-0.44
2019-02-25T00:55:56.932Z,-0.50
2019-02-25T00:58:28.416Z,-0.41
2019-02-25T01:01:00.642Z,-0.42
2019-02-25T01:03:34.252Z,-0.43
2019-02-25T01:06:04.985Z,-0.41
2019-02-25T01:08:35.718Z,-0.42
2019-02-25T01:11:09.829Z,-0.42
2019-02-25T01:13:40.802Z,-0.40
2019-02-25T01:16:12.998Z,-0.44
2019-02-25T01:18:45.399Z,-0.47
2019-02-25T01:21:16.960Z,-0.43
2019-02-25T01:23:48.905Z,-0.44
2019-02-25T01:26:20.677Z,-0.52
2019-02-25T01:28:52.944Z,-0.53
2019-02-25T01:31:25.517Z,-0.46
2019-02-25T01:33:56.254Z,-0.49
2019-02-25T01:36:27.500Z,-0.55
2019-02-25T01:38:58.535Z,-0.47
2019-02-25T01:41:29.576Z,-0.56
2019-02-25T01:44:00.307Z,-0.50
2019-02-25T01:46:30.855Z,-0.45
2019-02-25T01:49:03.067Z,-0.45
2019-02-25T01:51:34.581Z,-0.52
2019-02-25T01:54:05.967Z,-0.42
2019-02-25T01:56:36.732Z,-0.45
2019-02-25T01:59:07.871Z,-0.49
2019-02-25T02:01:38.609Z,-0.45
2019-02-25T02:04:10.366Z,-0.52
2019-02-25T02:06:44.064Z,-0.41
2019-02-25T02:09:14.905Z,-0.45
2019-02-25T02:11:46.466Z,-0.46
2019-02-25T02:14:17.598Z,-0.47
2019-02-25T02:16:48.229Z,-0.41
2019-02-25T02:19:21.622Z,-0.44
2019-02-25T02:21:53.075Z,-0.46
2019-02-25T02:24:24.115Z,-0.50
2019-02-25T02:26:54.840Z,-0.50
2019-02-25T02:29:25.778Z,-0.48
2019-02-25T02:31:57.326Z,-0.48
2019-02-25T02:34:28.367Z,-0.49
2019-02-25T02:36:59.995Z,-0.47
2019-02-25T02:39:30.247Z,-0.48
2019-02-25T02:42:15.000Z,-0.47
2019-02-25T02:44:50.752Z,-0.53
2019-02-25T02:47:36.235Z,-0.50
2019-02-25T02:50:15.878Z,-0.53
2019-02-25T02:52:46.914Z,-0.49
2019-02-25T02:55:17.347Z,-0.55
2019-02-25T02:57:48.176Z,-0.59
2019-02-25T03:00:20.142Z,-0.55
2019-02-25T03:02:52.412Z,-0.53
2019-02-25T03:05:23.345Z,-0.51
2019-02-25T03:07:56.125Z,-0.51
2019-02-25T03:10:28.496Z,-0.51
2019-02-25T03:12:58.828Z,-0.51
2019-02-25T03:15:29.960Z,-0.54
2019-02-25T03:18:02.847Z,-0.51
2019-02-25T03:20:34.092Z,-0.45
2019-02-25T03:23:04.721Z,-0.53
2019-02-25T03:25:36.061Z,-0.53
2019-02-25T03:28:07.751Z,-0.51
2019-02-25T03:30:38.560Z,-0.41
2019-02-25T03:33:10.006Z,-0.50
2019-02-25T03:35:40.426Z,-0.48
2019-02-25T03:38:11.847Z,-0.60
2019-02-25T03:40:44.349Z,-0.61
2019-02-25T03:43:17.780Z,-0.64
2019-02-25T03:45:48.354Z,-0.69
2019-02-25T03:48:19.111Z,-0.72
2019-02-25T03:50:50.049Z,-0.70
2019-02-25T03:53:20.774Z,-0.77
2019-02-25T03:55:52.225Z,-0.73
2019-02-25T03:58:22.735Z,-0.77
2019-02-25T04:00:54.410Z,-0.76
2019-02-25T04:03:26.676Z,-0.80
2019-02-25T04:05:58.449Z,-0.75
2019-02-25T04:08:28.754Z,-0.84
2019-02-25T04:10:59.589Z,-0.85
2019-02-25T04:13:33.396Z,-0.81
2019-02-25T04:16:04.438Z,-0.79
2019-02-25T04:18:36.501Z,-0.82
2019-02-25T04:21:07.233Z,-0.78
2019-02-25T04:23:38.371Z,-0.80
2019-02-25T04:26:09.341Z,-0.81
2019-02-25T04:28:39.838Z,-0.80
2019-02-25T04:31:11.782Z,-0.69
2019-02-25T04:33:42.123Z,-0.69
2019-02-25T04:36:14.375Z,-0.67
2019-02-25T04:38:45.094Z,-0.67
2019-02-25T04:41:16.982Z,-0.67
2019-02-25T04:43:47.614Z,-0.72
2019-02-25T04:46:20.700Z,-0.71
2019-02-25T04:48:51.233Z,-0.67
2019-02-25T04:51:22.167Z,-0.71
2019-02-25T04:53:52.817Z,-0.63
2019-02-25T04:56:25.341Z,-0.65
2019-02-25T04:58:59.284Z,-0.64
2019-02-25T05:01:30.932Z,-0.57
2019-02-25T05:04:02.073Z,-0.57
2019-02-25T05:06:35.161Z,-0.51
2019-02-25T05:09:06.546Z,-0.43
2019-02-25T05:11:37.550Z,-0.36
2019-02-25T05:14:11.246Z,-0.40
2019-02-25T05:16:41.790Z,-0.40
2019-02-25T05:19:13.025Z,-0.44
2019-02-25T05:21:43.651Z,-0.51
2019-02-25T05:24:17.043Z,-0.51
2019-02-25T05:26:49.727Z,-0.51
2019-02-25T05:29:20.971Z,-0.65
2019-02-25T05:31:52.526Z,-0.68
2019-02-25T05:34:23.468Z,-0.82
2019-02-25T05:36:56.241Z,-0.64
2019-02-25T05:39:27.385Z,-0.65
2019-02-25T05:41:58.321Z,-0.60
2019-02-25T05:44:29.157Z,-0.54
2019-02-25T05:47:00.091Z,-0.44
2019-02-25T05:49:31.063Z,-0.49
2019-02-25T05:52:01.765Z,-0.42
2019-02-25T05:54:32.497Z,-0.52
2019-02-25T05:57:04.559Z,-0.56
2019-02-25T05:59:36.017Z,-0.60
2019-02-25T06:02:06.640Z,-0.57
2019-02-25T06:04:38.479Z,-0.45
2019-02-25T06:07:10.483Z,-0.69
2019-02-25T06:09:42.318Z,-0.43
2019-02-25T06:12:12.953Z,-0.48
2019-02-25T06:14:43.780Z,-0.42
2019-02-25T06:17:14.611Z,-0.33
2019-02-25T06:19:46.167Z,-0.23
2019-02-25T06:22:16.902Z,-0.31
2019-02-25T06:24:47.753Z,-0.32
2019-02-25T06:27:19.602Z,-0.35
2019-02-25T06:29:50.735Z,-0.35
2019-02-25T06:32:22.495Z,-0.38
2019-02-25T06:34:53.257Z,-0.45
2019-02-25T06:37:27.400Z,-0.23
2019-02-25T06:39:58.140Z,-0.27
2019-02-25T06:42:29.423Z,-0.33
2019-02-25T06:45:00.869Z,-0.28
2019-02-25T06:47:31.295Z,-0.27
2019-02-25T06:50:07.186Z,-0.25
2019-02-25T06:52:37.777Z,-0.19
2019-02-25T06:55:13.431Z,-0.20
2019-02-25T06:57:43.846Z,-0.19
2019-02-25T07:00:16.433Z,-0.14
2019-02-25T07:02:47.565Z,-0.07
2019-02-25T07:05:32.221Z,-0.08
2019-02-25T07:08:13.914Z,-0.04
2019-02-25T07:10:55.813Z,-0.15
2019-02-25T07:13:36.719Z,-0.17
2019-02-25T07:16:25.803Z,-0.19
2019-02-25T07:19:10.604Z,-0.17
2019-02-25T07:21:43.757Z,-0.23
2019-02-25T07:24:28.142Z,-0.25
2019-02-25T07:27:17.003Z,-0.18
2019-02-25T07:29:53.068Z,0.05
2019-02-25T07:32:41.303Z,-0.03
2019-02-25T07:35:13.576Z,-0.02
2019-02-25T07:37:51.564Z,-0.11
2019-02-25T07:40:29.062Z,-0.10
2019-02-25T07:43:02.464Z,-0.17
2019-02-25T07:45:39.232Z,-0.20
2019-02-25T07:48:21.337Z,-0.19
2019-02-25T07:50:56.977Z,-0.15
2019-02-25T07:53:47.530Z,-0.13
2019-02-25T07:56:23.529Z,-0.12
2019-02-25T07:59:05.423Z,0.05
2019-02-25T08:01:47.441Z,0.27
2019-02-25T08:04:27.324Z,0.36
2019-02-25T08:07:15.612Z,0.25
2019-02-25T08:09:53.187Z,0.46
2019-02-25T08:12:26.400Z,0.46
2019-02-25T08:15:08.963Z,0.70
2019-02-25T08:17:47.152Z,0.90
2019-02-25T08:20:23.585Z,1.04
2019-02-25T08:23:03.629Z,0.96
2019-02-25T08:25:35.835Z,1.24
2019-02-25T08:28:09.614Z,1.16
2019-02-25T08:30:51.942Z,1.43
2019-02-25T08:33:24.786Z,1.78
2019-02-25T08:36:03.103Z,1.52
2019-02-25T08:38:37.719Z,1.74
2019-02-25T08:41:12.657Z,1.90
2019-02-25T08:43:48.610Z,2.05
2019-02-25T08:46:22.826Z,1.75
2019-02-25T08:49:00.535Z,1.91
2019-02-25T08:51:32.790Z,2.25
2019-02-25T08:54:05.569Z,2.22
2019-02-25T08:56:36.216Z,2.38
2019-02-25T08:59:07.543Z,2.51
2019-02-25T09:01:38.018Z,2.12
2019-02-25T09:04:09.115Z,2.40
2019-02-25T09:06:40.670Z,2.62
2019-02-25T09:09:11.062Z,2.66
2019-02-25T09:11:41.515Z,3.06
2019-02-25T09:14:13.077Z,3.20
2019-02-25T09:16:43.903Z,3.08
2019-02-25T09:19:14.943Z,3.60
2019-02-25T09:21:47.007Z,3.69
2019-02-25T09:24:17.432Z,3.86
2019-02-25T09:26:48.365Z,3.58
2019-02-25T09:29:20.638Z,3.04
2019-02-25T09:31:52.490Z,2.79
2019-02-25T09:34:24.967Z,2.87
2019-02-25T09:36:56.977Z,2.95
2019-02-25T09:39:28.378Z,2.98
2019-02-25T09:41:59.329Z,3.48
2019-02-25T09:44:31.685Z,3.23
2019-02-25T09:47:02.113Z,3.10
2019-02-25T09:49:33.152Z,2.95
2019-02-25T09:52:03.902Z,2.64
2019-02-25T09:54:35.655Z,2.35
2019-02-25T09:57:08.308Z,2.15
2019-02-25T09:59:40.634Z,2.20
2019-02-25T10:02:13.294Z,2.18
2019-02-25T10:04:43.696Z,2.05
2019-02-25T10:07:15.860Z,2.16
2019-02-25T10:09:49.189Z,2.18
2019-02-25T10:12:20.908Z,2.27
2019-02-25T10:14:51.936Z,2.35
2019-02-25T10:17:24.192Z,2.32
2019-02-25T10:19:54.440Z,2.35
2019-02-25T10:22:27.145Z,2.39
2019-02-25T10:24:59.185Z,2.45
2019-02-25T10:27:29.938Z,2.52
2019-02-25T10:30:04.049Z,2.19
2019-02-25T10:32:35.475Z,2.25
2019-02-25T10:35:10.428Z,2.59
2019-02-25T10:37:45.306Z,2.41
2019-02-25T10:40:17.778Z,2.08
2019-02-25T10:42:48.673Z,2.01
2019-02-25T10:45:20.552Z,2.36
2019-02-25T10:47:51.678Z,2.40
2019-02-25T10:50:23.414Z,2.55
2019-02-25T10:53:03.272Z,2.44
2019-02-25T10:55:32.545Z,2.38
2019-02-25T10:58:06.154Z,2.43
2019-02-25T11:00:37.790Z,2.29
2019-02-25T11:03:10.719Z,2.41
2019-02-25T11:05:41.826Z,2.27
2019-02-25T11:08:14.817Z,2.21
2019-02-25T11:10:48.650Z,2.22
2019-02-25T11:13:20.163Z,2.16
2019-02-25T11:15:52.439Z,2.12
2019-02-25T11:18:24.539Z,1.98
2019-02-25T11:21:01.278Z,1.99
2019-02-25T11:23:32.629Z,1.91
2019-02-25T11:26:09.239Z,1.91
2019-02-25T11:28:41.245Z,1.88
2019-02-25T11:31:11.950Z,1.80
2019-02-25T11:33:43.639Z,1.82
2019-02-25T11:36:15.421Z,1.81
2019-02-25T11:38:47.052Z,1.76
2019-02-25T11:41:17.994Z,1.83
2019-02-25T11:43:52.941Z,1.77
2019-02-25T11:46:22.532Z,1.84
2019-02-25T11:48:53.269Z,1.87
2019-02-25T11:51:24.106Z,1.88
2019-02-25T11:53:56.466Z,1.88
2019-02-25T11:56:28.433Z,1.90
2019-02-25T11:58:59.013Z,1.88
2019-02-25T12:01:29.893Z,1.73
2019-02-25T12:04:01.957Z,1.91
2019-02-25T12:06:32.999Z,1.89
2019-02-25T12:09:06.710Z,2.00
2019-02-25T12:11:37.637Z,2.03
2019-02-25T12:14:08.272Z,1.90
2019-02-25T12:16:39.828Z,1.93
2019-02-25T12:19:17.801Z,2.02
2019-02-25T12:21:45.689Z,2.12
2019-02-25T12:24:16.539Z,2.05
2019-02-25T12:26:48.744Z,2.04
2019-02-25T12:29:20.243Z,2.03
2019-02-25T12:31:53.584Z,2.00
2019-02-25T12:34:25.188Z,2.03
2019-02-25T12:36:55.710Z,2.08
2019-02-25T12:39:27.172Z,2.06
2019-02-25T12:41:58.201Z,2.10
2019-02-25T12:44:28.929Z,2.22
2019-02-25T12:46:59.565Z,2.32
2019-02-25T12:49:30.313Z,2.29
2019-02-25T12:52:02.094Z,2.29
2019-02-25T12:54:32.279Z,2.19
2019-02-25T12:57:03.319Z,2.17
2019-02-25T12:59:34.604Z,2.12
2019-02-25T13:02:05.492Z,2.10
2019-02-25T13:04:36.946Z,2.07
2019-02-25T13:07:09.516Z,2.00
2019-02-25T13:09:39.842Z,2.05
2019-02-25T13:12:10.576Z,2.06
2019-02-25T13:14:42.029Z,2.15
2019-02-25T13:17:14.095Z,2.09
2019-02-25T13:19:46.971Z,2.17
2019-02-25T13:22:20.460Z,2.12
2019-02-25T13:24:51.406Z,2.03
2019-02-25T13:27:22.771Z,2.02
2019-02-25T13:29:53.285Z,2.05
2019-02-25T13:32:25.861Z,2.12
2019-02-25T13:34:58.342Z,2.08
2019-02-25T13:37:29.923Z,2.10
2019-02-25T13:40:02.772Z,2.08
2019-02-25T13:42:33.101Z,2.09
2019-02-25T13:45:07.109Z,2.13
2019-02-25T13:47:38.780Z,2.15
2019-02-25T13:50:14.713Z,2.12
2019-02-25T13:52:48.231Z,2.16
2019-02-25T13:55:19.202Z,2.26
2019-02-25T13:57:50.079Z,2.19
2019-02-25T14:00:28.304Z,2.24
2019-02-25T14:02:59.840Z,2.23
2019-02-25T14:05:30.878Z,2.21
2019-02-25T14:08:01.925Z,2.20
2019-02-25T14:10:32.569Z,2.24
2019-02-25T14:13:04.100Z,2.27
2019-02-25T14:15:34.947Z,2.31
2019-02-25T14:18:05.770Z,2.33
2019-02-25T14:20:37.419Z,2.31
2019-02-25T14:23:08.157Z,2.33
2019-02-25T14:25:41.508Z,2.32
2019-02-25T14:28:11.210Z,2.33
2019-02-25T14:30:44.244Z,2.30
2019-02-25T14:33:17.126Z,2.33
2019-02-25T14:35:50.309Z,2.32
2019-02-25T14:38:22.715Z,2.23
2019-02-25T14:40:56.329Z,2.29
2019-02-25T14:43:27.462Z,2.33
2019-02-25T14:45:58.952Z,2.32
2019-02-25T14:48:32.846Z,2.25
2019-02-25T14:51:05.162Z,2.31
2019-02-25T14:53:35.687Z,2.30
2019-02-25T14:56:07.350Z,2.29
2019-02-25T14:58:42.607Z,2.29
2019-02-25T15:01:13.829Z,2.30
2019-02-25T15:03:47.015Z,2.29
2019-02-25T15:06:19.980Z,2.32
2019-02-25T15:08:50.328Z,2.31
2019-02-25T15:11:21.970Z,2.32
2019-02-25T15:13:54.345Z,2.34
2019-02-25T15:16:25.092Z,2.32
2019-02-25T15:18:58.616Z,2.30
2019-02-25T15:21:29.017Z,2.32
2019-02-25T15:24:02.592Z,2.27
2019-02-25T15:26:42.570Z,2.20
2019-02-25T15:29:09.221Z,2.23
2019-02-25T15:31:39.915Z,2.25
2019-02-25T15:34:13.045Z,2.24
2019-02-25T15:36:45.794Z,2.23
2019-02-25T15:39:17.853Z,2.28
2019-02-25T15:41:49.170Z,2.25
2019-02-25T15:44:20.559Z,2.25
2019-02-25T15:46:51.484Z,2.30
2019-02-25T15:49:24.401Z,2.29
2019-02-25T15:51:55.505Z,2.29
2019-02-25T15:54:28.981Z,2.25
2019-02-25T15:56:58.711Z,2.28
2019-02-25T17:11:53.452Z,2.17
2019-02-25T17:14:25.650Z,2.09
2019-02-25T17:16:57.018Z,2.14
2019-02-25T17:19:28.408Z,2.11
2019-02-25T17:21:58.690Z,2.09
2019-02-25T17:24:32.538Z,2.13
2019-02-25T17:27:04.562Z,2.05
2019-02-25T17:29:36.075Z,1.97
2019-02-25T17:32:08.420Z,1.97
2019-02-25T17:34:40.151Z,1.88
2019-02-25T17:37:12.656Z,1.76
2019-02-25T17:39:44.310Z,1.68
2019-02-25T17:42:16.891Z,1.48
2019-02-25T17:44:49.186Z,1.36
2019-02-25T17:47:24.299Z,1.28
2019-02-25T17:49:55.686Z,1.30
2019-02-25T17:52:29.438Z,1.21
2019-02-25T17:55:02.146Z,1.17
2019-02-25T17:57:34.967Z,1.16
2019-02-25T18:00:18.424Z,1.25
2019-02-25T18:02:48.855Z,1.16
2019-02-25T18:05:20.821Z,1.10
2019-02-25T18:07:51.337Z,0.96
2019-02-25T18:10:23.046Z,0.99
2019-02-25T18:12:56.367Z,0.91
2019-02-25T18:15:30.557Z,0.95
2019-02-25T18:18:01.131Z,0.79
2019-02-25T18:20:32.277Z,0.75
2019-02-25T18:23:04.952Z,0.74
2019-02-25T18:25:37.643Z,0.83
2019-02-25T18:28:08.480Z,0.84
2019-02-25T18:30:40.425Z,0.85
2019-02-25T18:33:11.943Z,0.66
2019-02-25T18:35:45.732Z,0.85
2019-02-25T18:38:16.222Z,0.87
2019-02-25T18:40:46.844Z,0.86
2019-02-25T18:43:20.054Z,0.79
2019-02-25T18:45:51.485Z,0.79
2019-02-25T18:48:24.909Z,0.75
2019-02-25T18:50:58.504Z,0.80
2019-02-25T18:53:28.017Z,0.83
2019-02-25T18:55:58.841Z,0.74
2019-02-25T18:58:31.005Z,0.80
2019-02-25T19:01:06.628Z,0.73
2019-02-25T19:03:37.970Z,0.65
2019-02-25T19:06:08.294Z,0.51
2019-02-25T19:08:43.239Z,0.51
2019-02-25T19:11:15.009Z,0.59
2019-02-25T19:13:48.229Z,0.59
2019-02-25T19:16:19.758Z,0.63
2019-02-25T19:18:51.990Z,0.57
2019-02-25T19:21:27.518Z,0.25
2019-02-25T19:23:58.133Z,0.56
2019-02-25T19:26:29.102Z,0.61
2019-02-25T19:29:00.652Z,0.59
2019-02-25T19:31:31.285Z,0.58
2019-02-25T19:34:05.758Z,0.64
2019-02-25T19:36:39.060Z,0.63
2019-02-25T19:39:13.854Z,0.69
2019-02-25T19:41:45.099Z,0.80
2019-02-25T19:44:15.500Z,0.81
2019-02-25T19:46:50.625Z,0.83
2019-02-25T19:49:23.617Z,0.83
2019-02-25T19:51:54.152Z,0.88
2019-02-25T19:54:25.185Z,0.77
2019-02-25T19:56:57.963Z,0.77
2019-02-25T19:59:31.016Z,0.74
2019-02-25T20:02:12.377Z,0.63
2019-02-25T20:04:45.042Z,0.76
2019-02-25T20:07:20.085Z,0.75
2019-02-25T20:09:50.603Z,0.76
2019-02-25T20:12:21.889Z,0.94
2019-02-25T20:14:53.365Z,0.93
2019-02-25T20:17:26.566Z,1.03
2019-02-25T20:19:56.895Z,1.04
2019-02-25T20:22:27.709Z,1.06
2019-02-25T20:24:59.537Z,1.00
2019-02-25T20:27:30.301Z,1.04
2019-02-25T20:30:03.164Z,1.05
2019-02-25T20:32:36.488Z,1.10
2019-02-25T20:35:10.173Z,1.07
2019-02-25T20:37:41.442Z,1.23
2019-02-25T20:40:17.122Z,1.20
2019-02-25T20:42:49.083Z,1.20
2019-02-25T20:45:28.029Z,1.24
2019-02-25T20:48:01.772Z,1.29
2019-02-25T20:50:32.394Z,1.38
2019-02-25T20:53:09.178Z,1.43
2019-02-25T20:55:38.974Z,1.39
2019-02-25T20:58:11.524Z,1.47
2019-02-25T21:00:46.371Z,1.46
2019-02-25T21:03:18.937Z,1.49
2019-02-25T21:05:51.633Z,1.56
2019-02-25T21:08:23.809Z,1.57
2019-02-25T21:10:55.354Z,1.61
2019-02-25T21:13:28.486Z,1.67
2019-02-25T21:16:00.416Z,1.72
2019-02-25T21:18:33.182Z,1.78
2019-02-25T21:21:05.594Z,1.84
2019-02-25T21:23:36.185Z,1.78
2019-02-25T21:26:09.240Z,1.86
2019-02-25T21:28:40.502Z,1.82
2019-02-25T21:31:14.587Z,1.82
2019-02-25T21:33:49.840Z,1.83
2019-02-25T21:36:18.144Z,1.79
2019-02-25T21:38:50.023Z,1.72
2019-02-25T21:41:21.347Z,1.75
2019-02-25T21:43:54.098Z,1.72
2019-02-25T21:46:27.007Z,1.68
2019-02-25T21:49:01.609Z,1.67
2019-02-25T21:51:35.170Z,1.65
2019-02-25T21:54:06.763Z,1.65
2019-02-25T21:56:37.955Z,1.60
2019-02-25T21:59:14.548Z,1.63
2019-02-25T22:01:45.022Z,1.62
2019-02-25T22:04:17.983Z,1.55
2019-02-25T22:06:50.954Z,1.53
2019-02-25T22:09:35.465Z,1.52
2019-02-25T22:11:56.432Z,1.61
2019-02-25T22:14:27.695Z,1.64
2019-02-25T22:17:01.008Z,1.57
2019-02-25T22:19:32.476Z,1.53
2019-02-25T22:22:04.952Z,1.50
2019-02-25T22:24:37.946Z,1.55
2019-02-25T22:27:11.935Z,1.55
2019-02-25T22:29:43.057Z,1.51
2019-02-25T22:32:17.466Z,1.53
2019-02-25T22:34:48.202Z,1.58
2019-02-25T22:37:22.763Z,1.80
2019-02-25T22:39:54.538Z,1.81
2019-02-25T22:42:26.926Z,1.93
2019-02-25T22:44:57.786Z,2.00
2019-02-25T22:47:28.414Z,2.05
2019-02-25T22:49:59.253Z,2.14
2019-02-25T22:52:31.514Z,2.14
2019-02-25T22:55:05.949Z,2.21
2019-02-25T22:57:36.981Z,2.14
2019-02-25T23:00:22.870Z,2.19
2019-02-25T23:02:54.614Z,2.22
2019-02-25T23:05:26.581Z,2.25
2019-02-25T23:07:59.464Z,2.24
2019-02-25T23:10:30.709Z,2.22
2019-02-25T23:13:01.012Z,2.23
2019-02-25T23:15:33.611Z,2.24
2019-02-25T23:18:08.106Z,2.25
2019-02-25T23:20:37.455Z,2.21
2019-02-25T23:23:08.463Z,2.30
2019-02-25T23:25:39.711Z,2.22
2019-02-25T23:28:10.140Z,2.18
2019-02-25T23:30:40.781Z,2.24
2019-02-25T23:33:14.448Z,2.25
2019-02-25T23:35:46.937Z,2.32
2019-02-25T23:38:18.491Z,2.26
2019-02-25T23:40:50.934Z,2.30
2019-02-25T23:43:21.701Z,2.13
2019-02-25T23:45:53.159Z,2.02
2019-02-25T23:48:26.449Z,2.00
2019-02-25T23:50:57.795Z,1.94
2019-02-25T23:53:32.370Z,1.97
2019-02-25T23:56:02.940Z,2.03
2019-02-25T23:58:38.335Z,2.07
